createdAt,value
2023-08-25T00:01:31.630Z,3.47
2023-08-25T00:03:58.506Z,3.15
2023-08-25T00:06:25.344Z,3.30
2023-08-25T00:08:52.169Z,3.40
2023-08-25T00:11:19.020Z,3.22
2023-08-25T00:13:45.838Z,3.08
2023-08-25T00:16:12.626Z,3.58
2023-08-25T00:18:39.357Z,3.17
2023-08-25T00:21:06.111Z,3.40
2023-08-25T00:23:32.908Z,2.88
2023-08-25T00:25:59.760Z,2.60
2023-08-25T00:28:27.142Z,2.88
2023-08-25T00:30:55.881Z,2.70
2023-08-25T00:33:22.769Z,2.70
2023-08-25T00:35:49.904Z,2.58
2023-08-25T00:38:16.773Z,2.50
2023-08-25T00:40:43.604Z,2.50
2023-08-25T00:43:10.452Z,2.50
2023-08-25T00:45:41.017Z,2.28
2023-08-25T00:48:08.998Z,1.95
2023-08-25T00:50:36.003Z,2.03
2023-08-25T00:53:04.896Z,1.92
2023-08-25T00:55:32.188Z,2.20
2023-08-25T00:58:00.114Z,2.40
2023-08-25T01:00:27.211Z,2.10
2023-08-25T01:02:55.206Z,2.42
2023-08-25T01:05:22.080Z,2.55
2023-08-25T01:07:49.753Z,1.90
2023-08-25T01:10:18.370Z,1.80
2023-08-25T01:12:53.707Z,2.47
2023-08-25T01:15:29.579Z,2.15
2023-08-25T01:18:04.228Z,2.28
2023-08-25T01:20:31.779Z,2.58
2023-08-25T01:23:16.198Z,2.20
2023-08-25T01:25:43.408Z,2.53
2023-08-25T01:28:10.177Z,2.38
2023-08-25T01:30:37.706Z,2.80
2023-08-25T01:33:05.078Z,2.45
2023-08-25T01:35:44.283Z,2.33
2023-08-25T01:38:25.911Z,2.55
2023-08-25T01:41:13.872Z,2.20
2023-08-25T01:43:45.755Z,2.72
2023-08-25T01:46:15.197Z,2.47
2023-08-25T01:48:44.318Z,2.30
2023-08-25T01:51:12.634Z,2.65
2023-08-25T01:53:39.510Z,2.40
2023-08-25T01:56:06.215Z,2.60
2023-08-25T01:58:33.079Z,2.80
2023-08-25T02:00:59.826Z,3.35
2023-08-25T02:03:26.580Z,3.40
2023-08-25T02:05:53.445Z,3.42
2023-08-25T02:08:20.350Z,3.60
2023-08-25T02:10:47.205Z,3.10
2023-08-25T02:13:14.359Z,4.07
2023-08-25T02:15:49.893Z,3.03
2023-08-25T02:18:16.694Z,3.45
2023-08-25T02:20:43.644Z,3.20
2023-08-25T02:23:10.649Z,3.30
2023-08-25T02:25:37.448Z,3.35
2023-08-25T02:28:04.478Z,2.92
2023-08-25T02:30:31.893Z,3.40
2023-08-25T02:32:58.881Z,3.58
2023-08-25T02:35:25.733Z,3.92
2023-08-25T02:38:05.391Z,3.83
2023-08-25T02:40:32.765Z,4.00
2023-08-25T02:43:05.743Z,4.00
2023-08-25T02:45:33.741Z,4.50
2023-08-25T02:48:00.698Z,3.92
2023-08-25T02:50:28.208Z,3.95
2023-08-25T02:52:54.984Z,4.40
2023-08-25T02:55:23.317Z,3.85
2023-08-25T02:57:51.466Z,3.65
2023-08-25T03:00:24.548Z,3.95
2023-08-25T03:02:52.308Z,3.85
2023-08-25T03:05:19.735Z,4.15
2023-08-25T03:07:46.870Z,3.92
2023-08-25T03:10:13.680Z,3.55
2023-08-25T03:12:41.031Z,3.63
2023-08-25T03:15:08.702Z,4.00
2023-08-25T03:17:35.838Z,4.07
2023-08-25T03:20:04.170Z,3.58
2023-08-25T03:22:31.119Z,3.88
2023-08-25T03:24:57.928Z,4.20
2023-08-25T03:27:24.664Z,3.65
2023-08-25T03:29:51.528Z,4.07
2023-08-25T03:32:18.279Z,4.40
2023-08-25T03:34:44.991Z,3.90
2023-08-25T03:37:12.890Z,4.30
2023-08-25T03:39:39.863Z,4.53
2023-08-25T03:42:06.961Z,4.20
2023-08-25T03:44:33.738Z,4.50
2023-08-25T03:47:00.526Z,3.90
2023-08-25T03:49:29.632Z,4.00
2023-08-25T03:51:59.515Z,4.22
2023-08-25T03:54:29.039Z,4.43
2023-08-25T03:56:55.806Z,5.10
2023-08-25T03:59:22.575Z,5.28
2023-08-25T04:01:49.433Z,5.13
2023-08-25T04:04:16.232Z,4.85
2023-08-25T04:06:43.104Z,5.18
2023-08-25T04:09:09.873Z,5.07
2023-08-25T04:11:37.797Z,4.65
2023-08-25T04:14:04.657Z,4.82
2023-08-25T04:16:31.526Z,6.07
2023-08-25T04:18:58.751Z,6.18
2023-08-25T04:21:26.363Z,4.88
2023-08-25T04:23:53.204Z,5.57
2023-08-25T04:26:20.000Z,5.75
2023-08-25T04:28:46.739Z,5.70
2023-08-25T04:31:13.555Z,5.35
2023-08-25T04:33:42.611Z,5.88
2023-08-25T04:36:09.818Z,5.07
2023-08-25T04:38:36.601Z,5.13
2023-08-25T04:41:03.365Z,5.60
2023-08-25T04:43:30.134Z,4.95
2023-08-25T04:45:56.917Z,6.60
2023-08-25T04:48:24.037Z,6.65
2023-08-25T04:50:50.893Z,6.90
2023-08-25T04:53:17.746Z,6.35
2023-08-25T04:55:44.592Z,7.30
2023-08-25T04:58:11.861Z,7.30
2023-08-25T05:00:38.795Z,7.25
2023-08-25T05:03:06.060Z,6.97
2023-08-25T05:05:33.360Z,7.40
2023-08-25T05:08:00.179Z,6.93
2023-08-25T05:10:27.065Z,7.47
2023-08-25T05:12:53.898Z,6.53
2023-08-25T05:15:20.662Z,6.82
2023-08-25T05:17:47.486Z,7.70
2023-08-25T05:20:22.012Z,7.35
2023-08-25T05:22:52.015Z,7.55
2023-08-25T05:25:21.653Z,7.32
2023-08-25T05:27:48.806Z,6.80
2023-08-25T05:30:17.686Z,7.60
2023-08-25T05:32:44.633Z,7.97
2023-08-25T05:35:12.265Z,7.50
2023-08-25T05:37:39.141Z,6.82
2023-08-25T05:40:08.162Z,8.00
2023-08-25T05:42:36.924Z,8.00
2023-08-25T05:45:04.741Z,7.28
2023-08-25T05:47:31.645Z,7.55
2023-08-25T05:49:58.608Z,6.97
2023-08-25T05:52:25.613Z,7.22
2023-08-25T05:54:52.534Z,6.72
2023-08-25T05:57:19.486Z,6.40
2023-08-25T05:59:46.223Z,6.75
2023-08-25T06:02:14.433Z,6.25
2023-08-25T06:04:41.295Z,6.32
2023-08-25T06:07:08.174Z,5.80
2023-08-25T06:09:34.979Z,6.28
2023-08-25T06:12:02.233Z,6.00
2023-08-25T06:14:31.364Z,5.85
2023-08-25T06:17:02.181Z,5.85
2023-08-25T06:19:29.324Z,6.20
2023-08-25T06:21:56.114Z,5.82
2023-08-25T06:24:22.927Z,6.32
2023-08-25T06:26:49.664Z,7.53
2023-08-25T06:29:16.378Z,7.55
2023-08-25T06:31:43.224Z,7.63
2023-08-25T06:34:10.224Z,7.63
2023-08-25T06:36:37.013Z,7.35
2023-08-25T06:39:04.887Z,8.10
2023-08-25T06:41:31.989Z,7.53
2023-08-25T06:44:00.304Z,7.28
2023-08-25T06:46:27.409Z,7.63
2023-08-25T06:48:54.264Z,8.38
2023-08-25T06:51:21.094Z,8.75
2023-08-25T06:53:47.907Z,9.63
2023-08-25T06:56:14.828Z,7.22
2023-08-25T06:58:41.653Z,7.90
2023-08-25T07:01:08.637Z,8.82
2023-08-25T07:03:36.264Z,10.50
2023-08-25T07:06:04.293Z,8.60
2023-08-25T07:08:31.961Z,10.20
2023-08-25T07:10:58.798Z,9.32
2023-08-25T07:13:25.576Z,10.00
2023-08-25T07:15:52.651Z,9.80
2023-08-25T07:18:19.600Z,8.02
2023-08-25T07:20:46.416Z,7.90
2023-08-25T07:23:13.202Z,9.15
2023-08-25T07:25:44.626Z,9.07
2023-08-25T07:28:12.242Z,10.57
2023-08-25T07:30:39.936Z,10.20
2023-08-25T07:33:09.572Z,9.15
2023-08-25T07:35:37.143Z,9.10
2023-08-25T07:38:05.173Z,9.50
2023-08-25T07:40:32.878Z,8.90
2023-08-25T07:43:04.406Z,10.55
2023-08-25T07:45:32.425Z,9.35
2023-08-25T07:48:00.954Z,9.00
2023-08-25T07:50:31.771Z,8.40
2023-08-25T07:52:59.728Z,8.27
2023-08-25T07:55:27.274Z,9.07
2023-08-25T07:57:54.470Z,8.40
2023-08-25T08:00:22.496Z,9.05
2023-08-25T08:02:50.812Z,10.90
2023-08-25T08:05:19.418Z,7.65
2023-08-25T08:07:49.462Z,6.88
2023-08-25T08:10:18.491Z,6.70
2023-08-25T08:12:46.448Z,6.50
2023-08-25T08:15:13.738Z,5.47
2023-08-25T08:17:41.414Z,5.03
2023-08-25T08:20:13.685Z,4.65
2023-08-25T08:22:42.308Z,5.50
2023-08-25T08:25:11.865Z,4.40
2023-08-25T08:27:40.638Z,4.03
2023-08-25T08:30:08.437Z,3.55
2023-08-25T08:32:39.379Z,2.83
2023-08-25T08:35:09.818Z,3.20
2023-08-25T08:37:37.365Z,3.03
2023-08-25T08:40:09.539Z,3.30
2023-08-25T08:42:43.254Z,3.90
2023-08-25T08:45:12.405Z,3.70
2023-08-25T08:47:49.024Z,4.00
2023-08-25T08:50:15.977Z,4.75
2023-08-25T08:52:42.788Z,3.47
2023-08-25T08:55:10.431Z,3.20
2023-08-25T08:57:37.788Z,4.00
2023-08-25T09:00:09.360Z,4.05
2023-08-25T09:02:37.006Z,3.40
2023-08-25T09:05:04.380Z,3.53
2023-08-25T09:07:34.051Z,3.45
2023-08-25T09:10:02.345Z,3.08
2023-08-25T09:12:30.424Z,3.10
2023-08-25T09:14:57.405Z,14.57
2023-08-25T09:17:24.354Z,4.28
2023-08-25T09:19:51.201Z,3.83
2023-08-25T09:22:19.589Z,4.20
2023-08-25T09:24:46.500Z,4.20
2023-08-25T09:27:27.905Z,5.07
2023-08-25T09:30:05.252Z,4.43
2023-08-25T09:32:32.644Z,3.72
2023-08-25T09:35:12.697Z,3.40
2023-08-25T09:37:43.810Z,3.42
2023-08-25T09:40:16.189Z,4.32
2023-08-25T09:42:43.070Z,4.10
2023-08-25T09:45:11.793Z,4.03
2023-08-25T09:47:44.632Z,4.20
2023-08-25T09:50:19.089Z,3.60
2023-08-25T09:52:47.848Z,4.32
2023-08-25T09:55:16.114Z,4.82
2023-08-25T09:57:47.643Z,4.50
2023-08-25T10:00:15.431Z,4.95
2023-08-25T10:02:43.467Z,4.95
2023-08-25T10:05:11.673Z,7.57
2023-08-25T10:07:39.020Z,6.70
2023-08-25T10:10:06.281Z,5.82
2023-08-25T10:12:35.873Z,5.65
2023-08-25T10:15:04.660Z,4.70
2023-08-25T10:17:32.263Z,4.97
2023-08-25T10:20:05.683Z,4.18
2023-08-25T10:22:35.652Z,5.18
2023-08-25T10:25:06.538Z,5.60
2023-08-25T10:27:33.898Z,5.88
2023-08-25T10:30:02.035Z,5.43
2023-08-25T10:32:59.413Z,5.70
2023-08-25T10:35:46.136Z,6.50
2023-08-25T10:38:19.065Z,6.60
2023-08-25T10:40:56.843Z,6.80
2023-08-25T10:43:34.685Z,7.47
2023-08-25T10:46:11.426Z,7.18
2023-08-25T10:48:39.959Z,7.35
2023-08-25T10:51:10.173Z,8.32
2023-08-25T10:53:46.212Z,8.38
2023-08-25T10:56:23.631Z,8.77
2023-08-25T10:59:05.544Z,8.38
2023-08-25T11:01:38.689Z,8.27
2023-08-25T11:04:26.110Z,8.48
2023-08-25T11:06:55.424Z,8.27
2023-08-25T11:09:22.185Z,7.85
2023-08-25T11:11:56.939Z,8.13
2023-08-25T11:14:32.409Z,7.82
2023-08-25T11:17:01.604Z,8.02
2023-08-25T11:19:30.123Z,8.38
2023-08-25T11:22:05.424Z,7.10
2023-08-25T11:24:33.285Z,7.10
2023-08-25T11:27:07.949Z,7.00
2023-08-25T11:29:34.900Z,6.95
2023-08-25T11:32:03.392Z,5.95
2023-08-25T11:34:31.757Z,6.40
2023-08-25T11:36:59.401Z,6.93
2023-08-25T11:39:26.325Z,5.90
2023-08-25T11:41:57.160Z,6.47
2023-08-25T11:44:25.229Z,6.75
2023-08-25T11:47:00.090Z,6.20
2023-08-25T11:49:29.620Z,6.28
2023-08-25T11:51:56.467Z,6.72
2023-08-25T11:54:23.386Z,6.55
2023-08-25T11:56:52.332Z,6.55
2023-08-25T11:59:23.758Z,6.53
2023-08-25T12:01:51.280Z,6.68
2023-08-25T12:04:25.863Z,6.47
2023-08-25T12:06:54.648Z,6.30
2023-08-25T12:09:23.508Z,6.72
2023-08-25T12:11:56.751Z,7.57
2023-08-25T12:14:32.596Z,7.72
2023-08-25T12:16:59.619Z,7.68
2023-08-25T12:19:30.043Z,6.90
2023-08-25T12:21:58.360Z,6.30
2023-08-25T12:24:25.230Z,5.70
2023-08-25T12:26:53.463Z,5.57
2023-08-25T12:29:23.303Z,5.63
2023-08-25T12:31:50.117Z,5.40
2023-08-25T12:34:16.958Z,5.38
2023-08-25T12:36:43.917Z,5.25
2023-08-25T12:39:10.828Z,5.85
2023-08-25T12:41:37.767Z,5.00
2023-08-25T12:44:05.383Z,5.13
2023-08-25T12:46:32.505Z,5.32
2023-08-25T12:48:59.849Z,5.38
2023-08-25T12:51:28.056Z,5.60
2023-08-25T12:53:57.606Z,5.25
2023-08-25T12:56:25.069Z,5.10
2023-08-25T12:58:55.220Z,4.70
2023-08-25T13:01:23.282Z,5.13
2023-08-25T13:03:50.121Z,3.97
2023-08-25T13:06:17.321Z,4.40
2023-08-25T13:08:45.677Z,4.47
2023-08-25T13:11:13.577Z,4.00
2023-08-25T13:13:41.400Z,3.72
2023-08-25T13:16:11.661Z,3.65
2023-08-25T13:18:38.814Z,3.60
2023-08-25T13:21:05.656Z,3.40
2023-08-25T13:23:41.116Z,3.70
2023-08-25T13:26:14.753Z,3.58
2023-08-25T13:28:41.616Z,4.68
2023-08-25T13:31:08.678Z,4.15
2023-08-25T13:33:35.969Z,4.10
2023-08-25T13:36:06.219Z,4.10
2023-08-25T13:38:33.124Z,3.55
2023-08-25T13:41:00.057Z,3.83
2023-08-25T13:43:26.906Z,3.45
2023-08-25T13:45:55.875Z,3.35
2023-08-25T13:48:22.711Z,3.10
2023-08-25T13:50:50.782Z,3.13
2023-08-25T13:53:17.565Z,3.13
2023-08-25T13:55:45.134Z,2.80
2023-08-25T13:58:12.509Z,3.08
2023-08-25T14:00:39.970Z,2.90
2023-08-25T14:03:07.069Z,2.40
2023-08-25T14:05:34.054Z,3.28
2023-08-25T14:08:01.211Z,3.40
2023-08-25T14:10:30.302Z,3.00
2023-08-25T14:12:57.363Z,2.85
2023-08-25T14:15:24.504Z,2.83
2023-08-25T14:17:54.143Z,2.80
2023-08-25T14:20:24.767Z,3.10
2023-08-25T14:22:51.550Z,3.17
2023-08-25T14:25:18.744Z,2.92
2023-08-25T14:27:45.591Z,2.70
2023-08-25T14:30:12.763Z,3.10
2023-08-25T14:32:39.718Z,3.42
2023-08-25T14:35:06.993Z,2.80
2023-08-25T14:37:34.471Z,3.20
2023-08-25T14:40:01.652Z,2.70
2023-08-25T14:42:28.595Z,3.20
2023-08-25T14:44:55.726Z,3.13
2023-08-25T14:47:22.768Z,2.78
2023-08-25T14:49:50.288Z,2.97
2023-08-25T14:52:20.450Z,2.70
2023-08-25T14:54:47.678Z,2.90
2023-08-25T14:57:14.671Z,2.95
2023-08-25T14:59:41.876Z,2.40
2023-08-25T15:02:09.079Z,2.58
2023-08-25T15:04:36.922Z,2.67
2023-08-25T15:07:04.249Z,2.10
2023-08-25T15:09:31.033Z,2.17
2023-08-25T15:11:57.920Z,2.40
2023-08-25T15:14:24.931Z,2.33
2023-08-25T15:16:51.920Z,2.33
2023-08-25T15:19:19.143Z,2.20
2023-08-25T15:21:46.158Z,2.25
2023-08-25T15:24:13.008Z,2.00
2023-08-25T15:26:40.455Z,2.00
2023-08-25T15:29:07.277Z,2.72
2023-08-25T15:31:34.782Z,2.58
2023-08-25T15:34:01.946Z,2.20
2023-08-25T15:36:29.053Z,2.50
2023-08-25T15:38:55.856Z,2.17
2023-08-25T15:41:22.836Z,2.53
2023-08-25T15:43:49.682Z,2.30
2023-08-25T15:46:16.744Z,2.08
2023-08-25T15:48:43.526Z,2.63
2023-08-25T15:51:10.565Z,2.30
2023-08-25T15:53:37.515Z,2.38
2023-08-25T15:56:04.738Z,2.30
2023-08-25T15:58:31.731Z,1.98
2023-08-25T16:01:01.010Z,2.03
2023-08-25T16:03:28.740Z,2.00
2023-08-25T16:05:57.674Z,2.10
2023-08-25T16:08:28.456Z,2.00
2023-08-25T16:11:06.581Z,1.80
2023-08-25T16:13:35.992Z,1.85
2023-08-25T16:16:04.665Z,1.90
2023-08-25T16:18:35.112Z,1.85
2023-08-25T16:21:05.966Z,1.85
2023-08-25T16:23:42.931Z,1.80
2023-08-25T16:26:10.321Z,1.65
2023-08-25T16:28:40.616Z,1.98
2023-08-25T16:31:11.763Z,1.80
2023-08-25T16:33:41.394Z,1.80
2023-08-25T16:36:09.227Z,1.67
2023-08-25T16:38:37.616Z,1.80
2023-08-25T16:41:04.527Z,2.05
2023-08-25T16:43:31.576Z,1.90
2023-08-25T16:45:58.503Z,2.05
2023-08-25T16:48:25.397Z,1.80
2023-08-25T16:50:52.343Z,1.95
2023-08-25T16:53:20.361Z,1.95
2023-08-25T16:55:47.573Z,1.88
2023-08-25T16:58:15.288Z,1.92
2023-08-25T17:00:43.526Z,1.90
2023-08-25T17:03:10.838Z,1.80
2023-08-25T17:05:37.734Z,2.00
2023-08-25T17:08:05.786Z,1.88
2023-08-25T17:10:33.510Z,2.17
2023-08-25T17:13:03.899Z,1.80
2023-08-25T17:15:34.558Z,1.80
2023-08-25T17:18:02.300Z,1.95
2023-08-25T17:20:29.447Z,2.08
2023-08-25T17:22:57.002Z,1.75
2023-08-25T17:25:24.375Z,1.60
2023-08-25T17:27:51.253Z,2.40
2023-08-25T17:30:18.241Z,2.22
2023-08-25T17:32:45.179Z,2.20
2023-08-25T17:35:12.110Z,2.20
2023-08-25T17:37:39.091Z,1.90
2023-08-25T17:40:06.698Z,2.17
2023-08-25T17:42:33.527Z,1.98
2023-08-25T17:47:42.041Z,2.20
2023-08-25T17:50:09.100Z,1.90
2023-08-25T17:52:35.956Z,1.80
2023-08-25T17:55:04.168Z,2.33
2023-08-25T17:57:33.201Z,2.30
2023-08-25T18:00:00.459Z,2.00
2023-08-25T18:02:27.381Z,2.15
2023-08-25T18:04:54.215Z,1.90
2023-08-25T18:07:20.999Z,2.00
2023-08-25T18:09:47.861Z,2.08
2023-08-25T18:12:14.872Z,2.10
2023-08-25T18:14:41.725Z,2.00
2023-08-25T18:17:09.340Z,2.13
2023-08-25T18:19:36.135Z,2.03
2023-08-25T18:22:04.637Z,1.90
2023-08-25T18:24:31.509Z,1.90
2023-08-25T18:26:58.504Z,2.20
2023-08-25T18:29:25.910Z,2.15
2023-08-25T18:31:52.860Z,2.13
2023-08-25T18:34:19.706Z,2.20
2023-08-25T18:36:46.649Z,1.83
2023-08-25T18:39:13.508Z,2.00
2023-08-25T18:41:40.389Z,2.42
2023-08-25T18:44:07.234Z,1.92
2023-08-25T18:46:34.918Z,2.10
2023-08-25T18:49:02.607Z,2.30
2023-08-25T18:51:29.717Z,1.90
2023-08-25T18:53:56.715Z,2.10
2023-08-25T18:56:23.573Z,2.22
2023-08-25T18:58:50.397Z,2.70
2023-08-25T19:01:17.585Z,2.40
2023-08-25T19:03:46.700Z,2.22
2023-08-25T19:06:13.677Z,2.60
2023-08-25T19:08:40.484Z,2.20
2023-08-25T19:11:07.682Z,2.30
2023-08-25T19:13:34.572Z,2.47
2023-08-25T19:16:03.618Z,2.65
2023-08-25T19:18:30.861Z,2.40
2023-08-25T19:21:02.463Z,2.25
2023-08-25T19:23:33.464Z,2.63
2023-08-25T19:26:03.268Z,2.40
2023-08-25T19:28:30.885Z,2.40
2023-08-25T19:31:05.489Z,2.60
2023-08-25T19:33:32.798Z,2.40
2023-08-25T19:36:00.152Z,2.22
2023-08-25T19:38:27.881Z,2.42
2023-08-25T19:40:55.011Z,2.10
2023-08-25T19:43:21.907Z,2.28
2023-08-25T19:46:10.324Z,3.08
2023-08-25T19:48:42.009Z,2.60
2023-08-25T19:51:09.650Z,2.70
2023-08-25T19:53:39.285Z,2.40
2023-08-25T19:56:06.628Z,2.13
2023-08-25T19:58:33.918Z,2.50
2023-08-25T20:01:01.989Z,3.13
2023-08-25T20:03:29.455Z,2.83
2023-08-25T20:06:08.352Z,3.00
2023-08-25T20:08:38.654Z,2.88
2023-08-25T20:11:08.518Z,3.40
2023-08-25T20:13:37.567Z,2.67
2023-08-25T20:16:04.685Z,2.90
2023-08-25T20:18:32.127Z,2.90
2023-08-25T20:20:59.532Z,3.00
2023-08-25T20:23:28.416Z,3.22
2023-08-25T20:25:55.625Z,3.13
2023-08-25T20:28:23.027Z,3.05
2023-08-25T20:30:49.971Z,3.08
2023-08-25T20:33:18.165Z,3.33
2023-08-25T20:35:46.916Z,3.47
2023-08-25T20:38:15.028Z,3.53
2023-08-25T20:40:43.773Z,2.92
2023-08-25T20:43:15.670Z,3.22
2023-08-25T20:45:47.381Z,3.13
2023-08-25T20:48:14.816Z,3.17
2023-08-25T20:50:46.896Z,3.10
2023-08-25T20:53:14.191Z,3.15
2023-08-25T20:55:41.064Z,3.33
2023-08-25T20:58:08.214Z,3.85
2023-08-25T21:00:35.054Z,3.70
2023-08-25T21:03:02.024Z,3.70
2023-08-25T21:05:28.940Z,3.63
2023-08-25T21:07:56.088Z,3.75
2023-08-25T21:10:23.751Z,4.97
2023-08-25T21:12:50.578Z,4.07
2023-08-25T21:15:17.562Z,3.55
2023-08-25T21:17:44.790Z,3.90
2023-08-25T21:20:12.079Z,3.50
2023-08-25T21:22:39.082Z,3.72
2023-08-25T21:25:06.248Z,4.28
2023-08-25T21:27:33.119Z,4.60
2023-08-25T21:29:59.885Z,4.40
2023-08-25T21:32:26.755Z,4.47
2023-08-25T21:34:53.661Z,4.47
2023-08-25T21:37:20.467Z,4.20
2023-08-25T21:39:47.399Z,4.47
2023-08-25T21:42:14.149Z,4.53
2023-08-25T21:44:40.938Z,4.55
2023-08-25T21:47:07.770Z,5.03
2023-08-25T21:49:34.556Z,5.30
2023-08-25T21:52:01.478Z,4.78
2023-08-25T21:54:31.353Z,5.20
2023-08-25T21:56:58.178Z,4.88
2023-08-25T21:59:24.948Z,4.65
2023-08-25T22:01:51.754Z,4.38
2023-08-25T22:04:18.643Z,5.10
2023-08-25T22:06:46.753Z,5.15
2023-08-25T22:09:13.570Z,5.55
2023-08-25T22:11:40.338Z,5.40
2023-08-25T22:14:07.111Z,6.00
2023-08-25T22:16:35.015Z,6.32
2023-08-25T22:19:04.427Z,6.80
2023-08-25T22:21:31.657Z,7.93
2023-08-25T22:23:58.582Z,9.45
2023-08-25T22:26:25.343Z,9.05
2023-08-25T22:28:52.072Z,10.27
2023-08-25T22:31:18.988Z,11.95
2023-08-25T22:36:15.480Z,14.02
2023-08-25T22:38:42.293Z,13.93
2023-08-25T22:41:09.182Z,16.02
2023-08-25T22:43:36.177Z,14.18
2023-08-25T22:46:07.464Z,15.25
2023-08-25T22:48:34.430Z,13.77
2023-08-25T22:51:01.307Z,16.65
2023-08-25T22:53:28.535Z,16.65
2023-08-25T22:55:55.988Z,16.75
2023-08-25T22:58:23.889Z,17.42
2023-08-25T23:00:51.072Z,17.35
2023-08-25T23:03:18.133Z,18.15
2023-08-25T23:05:45.304Z,17.48
2023-08-25T23:08:12.098Z,17.23
2023-08-25T23:10:40.981Z,16.40
2023-08-25T23:13:08.826Z,17.80
2023-08-25T23:15:36.430Z,19.05
2023-08-25T23:18:05.105Z,20.38
2023-08-25T23:20:35.432Z,18.85
2023-08-25T23:23:02.225Z,18.38
2023-08-25T23:25:29.146Z,18.77
2023-08-25T23:27:56.205Z,19.50
2023-08-25T23:30:23.338Z,22.50
2023-08-25T23:32:50.278Z,24.13
2023-08-25T23:35:17.264Z,25.60
2023-08-25T23:37:44.134Z,25.70
2023-08-25T23:40:13.958Z,26.05
2023-08-25T23:42:40.886Z,27.52
2023-08-25T23:45:08.337Z,27.55
2023-08-25T23:47:35.172Z,28.65
2023-08-25T23:50:02.015Z,28.67
2023-08-25T23:52:28.895Z,27.45
2023-08-25T23:54:57.871Z,30.50
2023-08-25T23:57:25.228Z,29.60
2023-08-25T23:59:53.024Z,30.23
